sensor_id;sensor_type;location;lat;lon;timestamp;temperature;humidity
11656;DHT22;5884;43.618;1.438;2022-07-29T04:45:26;20.90;99.90
11656;DHT22;5884;43.618;1.438;2022-07-29T04:47:53;20.90;99.90
11656;DHT22;5884;43.618;1.438;2022-07-29T04:50:21;20.90;99.90
11656;DHT22;5884;43.618;1.438;2022-07-29T04:52:48;20.80;99.90
11656;DHT22;5884;43.618;1.438;2022-07-29T04:55:16;20.70;99.90
11656;DHT22;5884;43.618;1.438;2022-07-29T04:57:43;20.60;99.90
11656;DHT22;5884;43.618;1.438;2022-07-29T05:00:11;20.40;99.90
11656;DHT22;5884;43.618;1.438;2022-07-29T05:02:40;20.30;99.90
11656;DHT22;5884;43.618;1.438;2022-07-29T05:05:08;20.10;99.90
11656;DHT22;5884;43.618;1.438;2022-07-29T05:07:35;20.00;99.90
11656;DHT22;5884;43.618;1.438;2022-07-29T05:10:03;19.90;99.90
11656;DHT22;5884;43.618;1.438;2022-07-29T05:12:30;19.90;99.90
11656;DHT22;5884;43.618;1.438;2022-07-29T05:14:58;19.80;99.90
11656;DHT22;5884;43.618;1.438;2022-07-29T05:17:25;19.80;99.90
11656;DHT22;5884;43.618;1.438;2022-07-29T05:19:53;19.70;99.90
11656;DHT22;5884;43.618;1.438;2022-07-29T05:22:21;19.60;99.90
11656;DHT22;5884;43.618;1.438;2022-07-29T05:24:48;19.50;99.90
11656;DHT22;5884;43.618;1.438;2022-07-29T05:27:15;19.50;99.90
11656;DHT22;5884;43.618;1.438;2022-07-29T05:29:43;19.40;99.90
11656;DHT22;5884;43.618;1.438;2022-07-29T05:32:10;19.40;99.90
11656;DHT22;5884;43.618;1.438;2022-07-29T05:34:37;19.30;99.90
11656;DHT22;5884;43.618;1.438;2022-07-29T05:37:06;19.20;99.90
11656;DHT22;5884;43.618;1.438;2022-07-29T05:39:33;19.20;99.90
11656;DHT22;5884;43.618;1.438;2022-07-29T05:42:00;19.10;99.90
11656;DHT22;5884;43.618;1.438;2022-07-29T05:44:27;19.20;99.90
11656;DHT22;5884;43.618;1.438;2022-07-29T05:46:55;19.20;99.90
11656;DHT22;5884;43.618;1.438;2022-07-29T05:49:22;19.10;99.90
11656;DHT22;5884;43.618;1.438;2022-07-29T05:51:49;19.10;99.90
11656;DHT22;5884;43.618;1.438;2022-07-29T05:54:18;19.20;99.90
11656;DHT22;5884;43.618;1.438;2022-07-29T05:56:45;19.30;99.90
11656;DHT22;5884;43.618;1.438;2022-07-29T05:59:12;19.20;99.90
11656;DHT22;5884;43.618;1.438;2022-07-29T06:01:39;19.20;99.90
11656;DHT22;5884;43.618;1.438;2022-07-29T06:04:07;19.20;99.90
11656;DHT22;5884;43.618;1.438;2022-07-29T06:06:34;19.20;99.90
11656;DHT22;5884;43.618;1.438;2022-07-29T06:09:02;19.30;99.90
11656;DHT22;5884;43.618;1.438;2022-07-29T06:11:31;19.40;99.90
11656;DHT22;5884;43.618;1.438;2022-07-29T06:13:58;19.40;99.90
11656;DHT22;5884;43.618;1.438;2022-07-29T06:16:25;19.30;99.90
11656;DHT22;5884;43.618;1.438;2022-07-29T06:18:52;19.30;99.90
11656;DHT22;5884;43.618;1.438;2022-07-29T06:21:20;19.40;99.90
11656;DHT22;5884;43.618;1.438;2022-07-29T06:23:47;19.40;99.90
11656;DHT22;5884;43.618;1.438;2022-07-29T06:26:14;19.30;99.90
11656;DHT22;5884;43.618;1.438;2022-07-29T06:28:43;19.30;99.90
11656;DHT22;5884;43.618;1.438;2022-07-29T06:31:10;19.30;99.90
11656;DHT22;5884;43.618;1.438;2022-07-29T06:33:37;19.30;99.90
11656;DHT22;5884;43.618;1.438;2022-07-29T06:36:05;19.20;99.90
11656;DHT22;5884;43.618;1.438;2022-07-29T06:38:32;19.20;99.90
11656;DHT22;5884;43.618;1.438;2022-07-29T06:41:00;19.10;99.90
11656;DHT22;5884;43.618;1.438;2022-07-29T06:43:30;19.10;99.90
11656;DHT22;5884;43.618;1.438;2022-07-29T06:46:05;19.20;99.90
11656;DHT22;5884;43.618;1.438;2022-07-29T06:48:34;19.30;99.90
11656;DHT22;5884;43.618;1.438;2022-07-29T06:51:02;19.40;99.90
11656;DHT22;5884;43.618;1.438;2022-07-29T06:53:30;19.40;99.90
11656;DHT22;5884;43.618;1.438;2022-07-29T06:55:58;19.50;99.90
11656;DHT22;5884;43.618;1.438;2022-07-29T06:58:25;19.50;99.90
11656;DHT22;5884;43.618;1.438;2022-07-29T07:00:53;19.60;99.90
11656;DHT22;5884;43.618;1.438;2022-07-29T07:03:22;19.50;99.90
11656;DHT22;5884;43.618;1.438;2022-07-29T07:05:51;19.50;99.90
11656;DHT22;5884;43.618;1.438;2022-07-29T07:08:19;19.50;99.90
11656;DHT22;5884;43.618;1.438;2022-07-29T07:10:46;19.50;99.90
11656;DHT22;5884;43.618;1.438;2022-07-29T07:13:14;19.40;99.90
11656;DHT22;5884;43.618;1.438;2022-07-29T07:15:42;19.40;99.90
11656;DHT22;5884;43.618;1.438;2022-07-29T07:18:10;19.50;99.90
11656;DHT22;5884;43.618;1.438;2022-07-29T07:20:39;19.60;99.90
11656;DHT22;5884;43.618;1.438;2022-07-29T07:23:07;19.50;99.90
11656;DHT22;5884;43.618;1.438;2022-07-29T07:25:34;19.60;99.90
11656;DHT22;5884;43.618;1.438;2022-07-29T07:28:02;19.70;99.90
11656;DHT22;5884;43.618;1.438;2022-07-29T07:30:29;19.80;99.90
11656;DHT22;5884;43.618;1.438;2022-07-29T07:32:56;19.90;99.90
11656;DHT22;5884;43.618;1.438;2022-07-29T07:35:24;19.90;99.90
11656;DHT22;5884;43.618;1.438;2022-07-29T07:37:56;19.80;99.90
11656;DHT22;5884;43.618;1.438;2022-07-29T07:40:24;19.90;99.90
11656;DHT22;5884;43.618;1.438;2022-07-29T07:42:51;19.90;99.90
11656;DHT22;5884;43.618;1.438;2022-07-29T07:45:19;20.00;99.90
11656;DHT22;5884;43.618;1.438;2022-07-29T07:47:46;20.10;99.90
11656;DHT22;5884;43.618;1.438;2022-07-29T07:50:13;20.10;99.90
11656;DHT22;5884;43.618;1.438;2022-07-29T07:52:48;20.10;99.90
11656;DHT22;5884;43.618;1.438;2022-07-29T07:55:17;20.10;99.90
11656;DHT22;5884;43.618;1.438;2022-07-29T07:57:45;20.20;99.90
11656;DHT22;5884;43.618;1.438;2022-07-29T08:00:14;20.20;99.90
11656;DHT22;5884;43.618;1.438;2022-07-29T08:02:41;20.30;99.90
11656;DHT22;5884;43.618;1.438;2022-07-29T08:05:11;20.30;99.90
11656;DHT22;5884;43.618;1.438;2022-07-29T08:07:43;20.30;99.90
11656;DHT22;5884;43.618;1.438;2022-07-29T08:10:10;20.30;99.90
11656;DHT22;5884;43.618;1.438;2022-07-29T08:12:39;20.30;99.90
11656;DHT22;5884;43.618;1.438;2022-07-29T08:15:08;20.30;99.90
11656;DHT22;5884;43.618;1.438;2022-07-29T08:17:35;20.30;99.90
11656;DHT22;5884;43.618;1.438;2022-07-29T08:20:03;20.30;99.90
11656;DHT22;5884;43.618;1.438;2022-07-29T08:22:31;20.40;99.90
11656;DHT22;5884;43.618;1.438;2022-07-29T08:24:59;20.40;99.90
11656;DHT22;5884;43.618;1.438;2022-07-29T08:27:26;20.40;99.90
11656;DHT22;5884;43.618;1.438;2022-07-29T08:29:57;20.40;99.90
11656;DHT22;5884;43.618;1.438;2022-07-29T08:32:24;20.50;99.90
11656;DHT22;5884;43.618;1.438;2022-07-29T08:34:53;20.60;99.90
11656;DHT22;5884;43.618;1.438;2022-07-29T08:37:21;20.60;99.90
11656;DHT22;5884;43.618;1.438;2022-07-29T08:39:48;20.70;99.90
11656;DHT22;5884;43.618;1.438;2022-07-29T08:42:15;20.60;99.90
11656;DHT22;5884;43.618;1.438;2022-07-29T08:44:43;20.60;99.90
11656;DHT22;5884;43.618;1.438;2022-07-29T08:47:14;20.60;99.90
11656;DHT22;5884;43.618;1.438;2022-07-29T08:49:41;20.70;99.90
11656;DHT22;5884;43.618;1.438;2022-07-29T08:52:11;20.80;99.90
11656;DHT22;5884;43.618;1.438;2022-07-29T08:54:39;20.80;99.90
11656;DHT22;5884;43.618;1.438;2022-07-29T08:57:06;20.80;99.90
11656;DHT22;5884;43.618;1.438;2022-07-29T08:59:34;20.90;99.90
11656;DHT22;5884;43.618;1.438;2022-07-29T09:02:04;20.70;99.90
11656;DHT22;5884;43.618;1.438;2022-07-29T09:04:34;20.60;99.90
11656;DHT22;5884;43.618;1.438;2022-07-29T09:07:04;20.60;99.90
11656;DHT22;5884;43.618;1.438;2022-07-29T09:09:33;20.60;99.90
11656;DHT22;5884;43.618;1.438;2022-07-29T09:12:01;20.60;99.90
11656;DHT22;5884;43.618;1.438;2022-07-29T09:14:29;20.60;99.90
11656;DHT22;5884;43.618;1.438;2022-07-29T09:16:56;20.70;99.90
11656;DHT22;5884;43.618;1.438;2022-07-29T09:19:26;20.70;99.90
11656;DHT22;5884;43.618;1.438;2022-07-29T09:21:57;20.70;99.90
11656;DHT22;5884;43.618;1.438;2022-07-29T09:24:26;20.80;99.90
11656;DHT22;5884;43.618;1.438;2022-07-29T09:26:55;20.90;99.90
11656;DHT22;5884;43.618;1.438;2022-07-29T09:29:23;21.10;99.90
11656;DHT22;5884;43.618;1.438;2022-07-29T09:31:51;21.20;99.90
11656;DHT22;5884;43.618;1.438;2022-07-29T09:34:22;21.30;99.90
11656;DHT22;5884;43.618;1.438;2022-07-29T09:36:51;21.20;99.90
11656;DHT22;5884;43.618;1.438;2022-07-29T09:39:31;21.20;99.90
11656;DHT22;5884;43.618;1.438;2022-07-29T09:42:00;21.30;99.90
11656;DHT22;5884;43.618;1.438;2022-07-29T09:44:41;21.30;99.90
11656;DHT22;5884;43.618;1.438;2022-07-29T09:47:09;21.40;99.90
11656;DHT22;5884;43.618;1.438;2022-07-29T09:49:51;21.50;99.90
11656;DHT22;5884;43.618;1.438;2022-07-29T09:52:20;21.60;99.90
11656;DHT22;5884;43.618;1.438;2022-07-29T09:54:49;21.80;99.90
11656;DHT22;5884;43.618;1.438;2022-07-29T09:57:24;21.90;99.90
11656;DHT22;5884;43.618;1.438;2022-07-29T09:59:57;22.00;99.90
11656;DHT22;5884;43.618;1.438;2022-07-29T10:02:30;22.20;99.90
11656;DHT22;5884;43.618;1.438;2022-07-29T10:04:59;22.30;99.90
11656;DHT22;5884;43.618;1.438;2022-07-29T10:07:42;22.40;99.90
11656;DHT22;5884;43.618;1.438;2022-07-29T10:10:18;22.70;99.90
11656;DHT22;5884;43.618;1.438;2022-07-29T10:12:52;22.90;99.90
11656;DHT22;5884;43.618;1.438;2022-07-29T10:15:22;22.90;99.90
11656;DHT22;5884;43.618;1.438;2022-07-29T10:17:51;23.10;99.90
11656;DHT22;5884;43.618;1.438;2022-07-29T10:20:20;23.30;99.90
11656;DHT22;5884;43.618;1.438;2022-07-29T10:22:48;23.20;99.90
11656;DHT22;5884;43.618;1.438;2022-07-29T10:25:18;23.40;99.90
11656;DHT22;5884;43.618;1.438;2022-07-29T10:27:47;23.30;99.90
11656;DHT22;5884;43.618;1.438;2022-07-29T10:30:17;23.40;99.90
11656;DHT22;5884;43.618;1.438;2022-07-29T10:33:13;23.50;99.90
11656;DHT22;5884;43.618;1.438;2022-07-29T10:36:02;24.00;99.90
11656;DHT22;5884;43.618;1.438;2022-07-29T10:38:43;24.10;99.90
11656;DHT22;5884;43.618;1.438;2022-07-29T10:41:31;24.00;99.90
11656;DHT22;5884;43.618;1.438;2022-07-29T10:44:06;23.70;99.90
11656;DHT22;5884;43.618;1.438;2022-07-29T10:46:36;24.00;99.90
11656;DHT22;5884;43.618;1.438;2022-07-29T10:49:06;24.20;99.90
11656;DHT22;5884;43.618;1.438;2022-07-29T10:51:54;24.30;99.90
11656;DHT22;5884;43.618;1.438;2022-07-29T10:54:43;24.20;99.90
11656;DHT22;5884;43.618;1.438;2022-07-29T10:57:22;24.10;99.90
11656;DHT22;5884;43.618;1.438;2022-07-29T11:00:26;24.00;99.90
11656;DHT22;5884;43.618;1.438;2022-07-29T11:02:57;23.90;99.90
11656;DHT22;5884;43.618;1.438;2022-07-29T11:05:25;23.80;99.90
11656;DHT22;5884;43.618;1.438;2022-07-29T11:08:20;23.70;99.90
11656;DHT22;5884;43.618;1.438;2022-07-29T11:11:30;23.60;99.90
11656;DHT22;5884;43.618;1.438;2022-07-29T11:14:05;23.70;99.90
11656;DHT22;5884;43.618;1.438;2022-07-29T11:17:03;23.80;99.90
11656;DHT22;5884;43.618;1.438;2022-07-29T11:19:32;23.80;99.90
11656;DHT22;5884;43.618;1.438;2022-07-29T11:22:00;24.10;99.90
11656;DHT22;5884;43.618;1.438;2022-07-29T11:24:28;24.20;99.90
11656;DHT22;5884;43.618;1.438;2022-07-29T11:27:13;24.20;99.90
11656;DHT22;5884;43.618;1.438;2022-07-29T11:29:50;24.30;99.90
11656;DHT22;5884;43.618;1.438;2022-07-29T11:32:19;24.50;99.90
11656;DHT22;5884;43.618;1.438;2022-07-29T11:34:48;24.40;99.90
11656;DHT22;5884;43.618;1.438;2022-07-29T11:37:23;24.50;99.90
11656;DHT22;5884;43.618;1.438;2022-07-29T11:42:49;24.10;99.90
11656;DHT22;5884;43.618;1.438;2022-07-29T11:45:21;24.20;99.90
11656;DHT22;5884;43.618;1.438;2022-07-29T11:47:55;24.30;99.90
11656;DHT22;5884;43.618;1.438;2022-07-29T11:50:33;24.50;99.90
11656;DHT22;5884;43.618;1.438;2022-07-29T11:53:03;24.90;99.90
11656;DHT22;5884;43.618;1.438;2022-07-29T11:55:38;24.90;99.90
11656;DHT22;5884;43.618;1.438;2022-07-29T11:58:06;24.70;99.90
11656;DHT22;5884;43.618;1.438;2022-07-29T12:00:37;24.80;99.90
11656;DHT22;5884;43.618;1.438;2022-07-29T12:03:06;24.90;99.90
11656;DHT22;5884;43.618;1.438;2022-07-29T12:05:37;25.20;99.90
11656;DHT22;5884;43.618;1.438;2022-07-29T12:08:07;25.10;99.90
11656;DHT22;5884;43.618;1.438;2022-07-29T12:10:40;25.40;99.90
11656;DHT22;5884;43.618;1.438;2022-07-29T12:13:08;25.40;99.90
11656;DHT22;5884;43.618;1.438;2022-07-29T12:15:37;25.30;99.90
11656;DHT22;5884;43.618;1.438;2022-07-29T12:18:15;25.40;99.90
11656;DHT22;5884;43.618;1.438;2022-07-29T12:20:44;25.10;99.90
11656;DHT22;5884;43.618;1.438;2022-07-29T12:23:13;25.10;99.90
11656;DHT22;5884;43.618;1.438;2022-07-29T12:25:43;25.10;99.90
11656;DHT22;5884;43.618;1.438;2022-07-29T12:28:12;25.40;99.90
11656;DHT22;5884;43.618;1.438;2022-07-29T12:30:45;25.70;99.90
11656;DHT22;5884;43.618;1.438;2022-07-29T12:33:19;25.90;99.90
11656;DHT22;5884;43.618;1.438;2022-07-29T12:35:50;26.30;99.90
11656;DHT22;5884;43.618;1.438;2022-07-29T12:38:18;26.50;99.90
11656;DHT22;5884;43.618;1.438;2022-07-29T12:40:46;26.50;99.90
11656;DHT22;5884;43.618;1.438;2022-07-29T12:43:15;27.00;99.90
11656;DHT22;5884;43.618;1.438;2022-07-29T12:45:46;27.40;99.90
11656;DHT22;5884;43.618;1.438;2022-07-29T12:48:16;27.50;99.90
11656;DHT22;5884;43.618;1.438;2022-07-29T12:50:55;27.60;99.90
11656;DHT22;5884;43.618;1.438;2022-07-29T12:53:24;27.50;99.90
11656;DHT22;5884;43.618;1.438;2022-07-29T12:55:53;26.90;99.90
11656;DHT22;5884;43.618;1.438;2022-07-29T12:58:32;26.70;99.90
11656;DHT22;5884;43.618;1.438;2022-07-29T13:01:08;26.80;99.90
11656;DHT22;5884;43.618;1.438;2022-07-29T13:03:48;26.90;99.90
11656;DHT22;5884;43.618;1.438;2022-07-29T13:06:47;26.90;99.90
11656;DHT22;5884;43.618;1.438;2022-07-29T13:09:16;26.80;99.90
11656;DHT22;5884;43.618;1.438;2022-07-29T13:11:45;26.70;99.90
11656;DHT22;5884;43.618;1.438;2022-07-29T13:14:28;26.50;99.90
11656;DHT22;5884;43.618;1.438;2022-07-29T13:17:03;26.20;99.90
11656;DHT22;5884;43.618;1.438;2022-07-29T13:19:36;26.10;99.90
11656;DHT22;5884;43.618;1.438;2022-07-29T13:22:06;26.30;99.90
11656;DHT22;5884;43.618;1.438;2022-07-29T13:24:44;26.50;99.90
11656;DHT22;5884;43.618;1.438;2022-07-29T13:27:13;26.50;99.90
11656;DHT22;5884;43.618;1.438;2022-07-29T13:29:41;26.60;99.90
11656;DHT22;5884;43.618;1.438;2022-07-29T13:32:09;26.70;99.90
11656;DHT22;5884;43.618;1.438;2022-07-29T13:34:37;26.70;99.90
11656;DHT22;5884;43.618;1.438;2022-07-29T13:37:05;26.80;99.90
11656;DHT22;5884;43.618;1.438;2022-07-29T13:39:32;26.50;99.90
11656;DHT22;5884;43.618;1.438;2022-07-29T13:41:59;26.20;99.90
11656;DHT22;5884;43.618;1.438;2022-07-29T13:44:26;26.10;99.90
11656;DHT22;5884;43.618;1.438;2022-07-29T13:46:54;25.90;99.90
11656;DHT22;5884;43.618;1.438;2022-07-29T13:49:22;25.90;99.90
11656;DHT22;5884;43.618;1.438;2022-07-29T13:51:50;25.90;99.90
11656;DHT22;5884;43.618;1.438;2022-07-29T13:54:17;26.10;99.90
11656;DHT22;5884;43.618;1.438;2022-07-29T13:56:44;26.30;99.90
11656;DHT22;5884;43.618;1.438;2022-07-29T13:59:12;26.40;99.90
11656;DHT22;5884;43.618;1.438;2022-07-29T14:01:39;26.30;99.90
11656;DHT22;5884;43.618;1.438;2022-07-29T14:04:07;26.40;99.90
11656;DHT22;5884;43.618;1.438;2022-07-29T14:06:36;26.80;99.90
11656;DHT22;5884;43.618;1.438;2022-07-29T14:09:04;26.80;99.90
11656;DHT22;5884;43.618;1.438;2022-07-29T14:11:34;26.30;99.90
11656;DHT22;5884;43.618;1.438;2022-07-29T14:14:01;26.30;99.90
11656;DHT22;5884;43.618;1.438;2022-07-29T14:16:28;26.20;99.90
11656;DHT22;5884;43.618;1.438;2022-07-29T14:18:55;26.30;99.90
11656;DHT22;5884;43.618;1.438;2022-07-29T14:21:23;26.50;99.90
11656;DHT22;5884;43.618;1.438;2022-07-29T14:23:51;26.50;99.90
11656;DHT22;5884;43.618;1.438;2022-07-29T14:26:20;26.40;99.90
11656;DHT22;5884;43.618;1.438;2022-07-29T14:28:48;26.50;99.90
11656;DHT22;5884;43.618;1.438;2022-07-29T14:31:15;26.40;99.90
11656;DHT22;5884;43.618;1.438;2022-07-29T14:33:42;26.40;99.90
11656;DHT22;5884;43.618;1.438;2022-07-29T14:36:09;26.50;99.90
11656;DHT22;5884;43.618;1.438;2022-07-29T14:38:37;26.60;99.90
11656;DHT22;5884;43.618;1.438;2022-07-29T14:41:07;26.50;99.90
11656;DHT22;5884;43.618;1.438;2022-07-29T14:43:35;26.70;99.90
11656;DHT22;5884;43.618;1.438;2022-07-29T14:46:02;27.40;99.90
11656;DHT22;5884;43.618;1.438;2022-07-29T14:48:29;27.90;99.90
11656;DHT22;5884;43.618;1.438;2022-07-29T14:50:56;28.00;99.90
11656;DHT22;5884;43.618;1.438;2022-07-29T14:53:24;27.60;99.90
11656;DHT22;5884;43.618;1.438;2022-07-29T14:55:51;27.40;99.90
11656;DHT22;5884;43.618;1.438;2022-07-29T14:58:20;27.20;99.90
11656;DHT22;5884;43.618;1.438;2022-07-29T15:00:48;27.40;99.90
11656;DHT22;5884;43.618;1.438;2022-07-29T15:03:15;27.50;99.90
11656;DHT22;5884;43.618;1.438;2022-07-29T15:05:42;27.70;99.90
11656;DHT22;5884;43.618;1.438;2022-07-29T15:08:10;27.90;99.90
11656;DHT22;5884;43.618;1.438;2022-07-29T15:10:37;27.70;99.90
11656;DHT22;5884;43.618;1.438;2022-07-29T15:13:04;28.10;99.90
11656;DHT22;5884;43.618;1.438;2022-07-29T15:15:33;28.10;99.90
11656;DHT22;5884;43.618;1.438;2022-07-29T15:18:00;28.00;99.90
11656;DHT22;5884;43.618;1.438;2022-07-29T15:20:27;27.90;99.90
11656;DHT22;5884;43.618;1.438;2022-07-29T15:22:55;28.10;99.90
11656;DHT22;5884;43.618;1.438;2022-07-29T15:25:23;28.00;99.90
11656;DHT22;5884;43.618;1.438;2022-07-29T15:27:50;27.90;99.90
11656;DHT22;5884;43.618;1.438;2022-07-29T15:30:18;28.00;99.90
11656;DHT22;5884;43.618;1.438;2022-07-29T15:32:46;27.70;99.90
11656;DHT22;5884;43.618;1.438;2022-07-29T15:35:14;27.30;99.90
11656;DHT22;5884;43.618;1.438;2022-07-29T15:37:41;27.10;99.90
11656;DHT22;5884;43.618;1.438;2022-07-29T15:40:09;26.70;99.90
11656;DHT22;5884;43.618;1.438;2022-07-29T15:42:37;26.60;99.90
11656;DHT22;5884;43.618;1.438;2022-07-29T15:45:05;26.70;99.90
11656;DHT22;5884;43.618;1.438;2022-07-29T15:47:34;26.90;99.90
11656;DHT22;5884;43.618;1.438;2022-07-29T15:50:04;27.30;99.90
11656;DHT22;5884;43.618;1.438;2022-07-29T15:52:37;27.30;99.90
11656;DHT22;5884;43.618;1.438;2022-07-29T15:55:05;27.00;99.90
11656;DHT22;5884;43.618;1.438;2022-07-29T15:57:33;26.60;99.90
11656;DHT22;5884;43.618;1.438;2022-07-29T16:00:00;26.50;99.90
11656;DHT22;5884;43.618;1.438;2022-07-29T16:02:27;26.40;99.90
11656;DHT22;5884;43.618;1.438;2022-07-29T16:04:55;26.40;99.90
11656;DHT22;5884;43.618;1.438;2022-07-29T16:07:23;26.50;99.90
11656;DHT22;5884;43.618;1.438;2022-07-29T16:09:51;26.60;99.90
11656;DHT22;5884;43.618;1.438;2022-07-29T16:12:18;26.60;99.90
11656;DHT22;5884;43.618;1.438;2022-07-29T16:14:45;26.60;99.90
11656;DHT22;5884;43.618;1.438;2022-07-29T16:17:14;26.60;99.90
11656;DHT22;5884;43.618;1.438;2022-07-29T16:19:41;26.80;99.90
11656;DHT22;5884;43.618;1.438;2022-07-29T16:22:08;26.50;99.90
11656;DHT22;5884;43.618;1.438;2022-07-29T16:24:37;26.50;99.90
11656;DHT22;5884;43.618;1.438;2022-07-29T16:27:05;26.70;99.90
11656;DHT22;5884;43.618;1.438;2022-07-29T16:29:32;26.80;99.90
11656;DHT22;5884;43.618;1.438;2022-07-29T16:32:01;26.70;99.90
11656;DHT22;5884;43.618;1.438;2022-07-29T16:34:28;26.90;99.90
11656;DHT22;5884;43.618;1.438;2022-07-29T16:36:55;27.20;99.90
11656;DHT22;5884;43.618;1.438;2022-07-29T16:39:23;27.20;99.90
11656;DHT22;5884;43.618;1.438;2022-07-29T16:41:51;27.00;99.90
11656;DHT22;5884;43.618;1.438;2022-07-29T16:44:18;27.10;99.90
11656;DHT22;5884;43.618;1.438;2022-07-29T16:46:45;27.10;99.90
11656;DHT22;5884;43.618;1.438;2022-07-29T16:49:13;27.10;99.90
11656;DHT22;5884;43.618;1.438;2022-07-29T16:51:40;27.00;99.90
11656;DHT22;5884;43.618;1.438;2022-07-29T16:54:07;26.80;99.90
11656;DHT22;5884;43.618;1.438;2022-07-29T16:56:35;26.50;99.90
11656;DHT22;5884;43.618;1.438;2022-07-29T16:59:04;26.40;99.90
11656;DHT22;5884;43.618;1.438;2022-07-29T17:01:31;26.30;99.90
11656;DHT22;5884;43.618;1.438;2022-07-29T17:03:58;26.30;99.90
11656;DHT22;5884;43.618;1.438;2022-07-29T17:06:31;26.40;99.90
11656;DHT22;5884;43.618;1.438;2022-07-29T17:08:59;26.30;99.90
11656;DHT22;5884;43.618;1.438;2022-07-29T17:11:27;26.20;99.90
11656;DHT22;5884;43.618;1.438;2022-07-29T17:13:54;26.20;99.90
11656;DHT22;5884;43.618;1.438;2022-07-29T17:16:24;26.10;99.90
11656;DHT22;5884;43.618;1.438;2022-07-29T17:18:52;25.90;99.90
11656;DHT22;5884;43.618;1.438;2022-07-29T17:21:21;25.80;99.90
11656;DHT22;5884;43.618;1.438;2022-07-29T17:23:49;25.80;99.90
11656;DHT22;5884;43.618;1.438;2022-07-29T17:26:17;25.80;99.90
11656;DHT22;5884;43.618;1.438;2022-07-29T17:28:45;25.70;99.90
11656;DHT22;5884;43.618;1.438;2022-07-29T17:31:13;25.80;99.90
11656;DHT22;5884;43.618;1.438;2022-07-29T17:33:42;25.70;99.90
11656;DHT22;5884;43.618;1.438;2022-07-29T17:36:09;25.70;99.90
11656;DHT22;5884;43.618;1.438;2022-07-29T17:38:53;25.60;99.90
11656;DHT22;5884;43.618;1.438;2022-07-29T17:41:22;25.70;99.90
11656;DHT22;5884;43.618;1.438;2022-07-29T17:43:51;25.70;99.90
11656;DHT22;5884;43.618;1.438;2022-07-29T17:46:19;25.60;99.90
11656;DHT22;5884;43.618;1.438;2022-07-29T17:48:48;25.60;99.90
11656;DHT22;5884;43.618;1.438;2022-07-29T17:51:15;25.60;99.90
11656;DHT22;5884;43.618;1.438;2022-07-29T17:53:43;25.50;99.90
11656;DHT22;5884;43.618;1.438;2022-07-29T17:56:10;25.40;99.90
11656;DHT22;5884;43.618;1.438;2022-07-29T17:58:39;25.40;99.90
11656;DHT22;5884;43.618;1.438;2022-07-29T18:01:06;25.40;99.90
11656;DHT22;5884;43.618;1.438;2022-07-29T18:03:33;25.30;99.90
11656;DHT22;5884;43.618;1.438;2022-07-29T18:06:02;25.30;99.90
11656;DHT22;5884;43.618;1.438;2022-07-29T18:08:29;25.20;99.90
11656;DHT22;5884;43.618;1.438;2022-07-29T18:10:57;25.10;99.90
11656;DHT22;5884;43.618;1.438;2022-07-29T18:13:24;25.10;99.90
11656;DHT22;5884;43.618;1.438;2022-07-29T18:15:52;25.10;99.90
11656;DHT22;5884;43.618;1.438;2022-07-29T18:18:19;25.00;99.90
11656;DHT22;5884;43.618;1.438;2022-07-29T18:20:46;25.10;99.90
11656;DHT22;5884;43.618;1.438;2022-07-29T18:23:15;25.00;99.90
11656;DHT22;5884;43.618;1.438;2022-07-29T18:25:42;25.00;99.90
11656;DHT22;5884;43.618;1.438;2022-07-29T18:28:09;24.90;99.90
11656;DHT22;5884;43.618;1.438;2022-07-29T18:30:37;24.90;99.90
11656;DHT22;5884;43.618;1.438;2022-07-29T18:33:04;24.90;99.90
11656;DHT22;5884;43.618;1.438;2022-07-29T18:35:33;24.80;99.90
11656;DHT22;5884;43.618;1.438;2022-07-29T18:38:00;24.70;99.90
11656;DHT22;5884;43.618;1.438;2022-07-29T18:40:32;24.60;99.90
11656;DHT22;5884;43.618;1.438;2022-07-29T18:42:59;24.60;99.90
11656;DHT22;5884;43.618;1.438;2022-07-29T18:45:27;24.60;99.90
11656;DHT22;5884;43.618;1.438;2022-07-29T18:47:54;24.50;99.90
11656;DHT22;5884;43.618;1.438;2022-07-29T18:50:21;24.50;99.90
11656;DHT22;5884;43.618;1.438;2022-07-29T18:52:49;24.40;99.90
11656;DHT22;5884;43.618;1.438;2022-07-29T18:55:17;24.40;99.90
11656;DHT22;5884;43.618;1.438;2022-07-29T18:57:45;24.40;99.90
11656;DHT22;5884;43.618;1.438;2022-07-29T19:00:13;24.30;99.90
11656;DHT22;5884;43.618;1.438;2022-07-29T19:02:40;24.30;99.90
11656;DHT22;5884;43.618;1.438;2022-07-29T19:05:09;24.30;99.90
11656;DHT22;5884;43.618;1.438;2022-07-29T19:07:36;24.20;99.90
11656;DHT22;5884;43.618;1.438;2022-07-29T19:10:04;24.20;99.90
11656;DHT22;5884;43.618;1.438;2022-07-29T19:12:32;24.10;99.90
11656;DHT22;5884;43.618;1.438;2022-07-29T19:15:01;24.10;99.90
11656;DHT22;5884;43.618;1.438;2022-07-29T19:17:28;24.10;99.90
11656;DHT22;5884;43.618;1.438;2022-07-29T19:19:55;24.10;99.90
11656;DHT22;5884;43.618;1.438;2022-07-29T19:22:23;24.00;99.90
11656;DHT22;5884;43.618;1.438;2022-07-29T19:24:50;24.00;99.90
11656;DHT22;5884;43.618;1.438;2022-07-29T19:27:17;24.00;99.90
11656;DHT22;5884;43.618;1.438;2022-07-29T19:29:45;23.90;99.90
11656;DHT22;5884;43.618;1.438;2022-07-29T19:32:13;23.80;99.90
11656;DHT22;5884;43.618;1.438;2022-07-29T19:34:41;23.80;99.90
11656;DHT22;5884;43.618;1.438;2022-07-29T19:37:28;23.70;99.90
11656;DHT22;5884;43.618;1.438;2022-07-29T19:39:55;23.70;99.90
11656;DHT22;5884;43.618;1.438;2022-07-29T19:42:23;23.70;99.90
11656;DHT22;5884;43.618;1.438;2022-07-29T19:44:50;23.60;99.90
11656;DHT22;5884;43.618;1.438;2022-07-29T19:47:18;23.50;99.90
11656;DHT22;5884;43.618;1.438;2022-07-29T19:49:46;23.50;99.90
11656;DHT22;5884;43.618;1.438;2022-07-29T19:52:13;23.50;99.90
11656;DHT22;5884;43.618;1.438;2022-07-29T19:54:40;23.40;99.90
11656;DHT22;5884;43.618;1.438;2022-07-29T19:57:07;23.40;99.90
11656;DHT22;5884;43.618;1.438;2022-07-29T19:59:35;23.40;99.90
11656;DHT22;5884;43.618;1.438;2022-07-29T20:02:02;23.30;99.90
11656;DHT22;5884;43.618;1.438;2022-07-29T20:04:31;23.30;99.90
11656;DHT22;5884;43.618;1.438;2022-07-29T20:06:58;23.30;99.90
11656;DHT22;5884;43.618;1.438;2022-07-29T20:09:26;23.20;99.90
11656;DHT22;5884;43.618;1.438;2022-07-29T20:11:53;23.20;99.90
11656;DHT22;5884;43.618;1.438;2022-07-29T20:14:20;23.20;99.90
11656;DHT22;5884;43.618;1.438;2022-07-29T20:16:48;23.20;99.90
11656;DHT22;5884;43.618;1.438;2022-07-29T20:19:15;23.10;99.90
11656;DHT22;5884;43.618;1.438;2022-07-29T20:21:44;23.10;99.90
11656;DHT22;5884;43.618;1.438;2022-07-29T20:24:11;23.10;99.90
11656;DHT22;5884;43.618;1.438;2022-07-29T20:26:38;23.10;99.90
11656;DHT22;5884;43.618;1.438;2022-07-29T20:29:06;23.10;99.90
11656;DHT22;5884;43.618;1.438;2022-07-29T20:31:33;23.00;99.90
11656;DHT22;5884;43.618;1.438;2022-07-29T20:34:01;23.00;99.90
11656;DHT22;5884;43.618;1.438;2022-07-29T20:36:29;22.90;99.90
11656;DHT22;5884;43.618;1.438;2022-07-29T20:38:58;22.90;99.90
11656;DHT22;5884;43.618;1.438;2022-07-29T20:41:25;22.90;99.90
11656;DHT22;5884;43.618;1.438;2022-07-29T20:43:53;22.80;99.90
11656;DHT22;5884;43.618;1.438;2022-07-29T20:46:20;22.80;99.90